Time;durP1;ratioP1;P1;durP2;ratioP2;P2;SDS_P1;SDS_P2;PMS_P1;PMS_P2;Temp;Humidity;BMP_temperature;BMP_pressure;BME280_temperature;BME280_humidity;BME280_pressure;Samples;Min_cycle;Max_cycle;Signal;HPM_P1;HPM_P2
2023/10/25 00:12:54;;;;;;;17.87;9.63;;;;;;;16.36;73.34;100209.47;31424550;28;20053;-74
2023/10/25 00:27:56;;;;;;;15.27;8.90;;;;;;;16.20;74.60;100174.16;31423292;28;20044;-72
2023/10/25 00:43:15;;;;;;;32.13;16.17;;;;;;;15.78;82.54;100177.44;31421001;28;20087;-73
2023/10/25 00:58:17;;;;;;;49.73;23.83;;;;;;;15.12;100.00;100165.84;31416975;28;20047;-74
2023/10/25 01:13:21;;;;;;;39.17;17.27;;;;;;;15.29;96.49;100164.44;31422747;28;20048;-73
2023/10/25 01:28:23;;;;;;;41.03;18.63;;;;;;;15.58;92.90;100168.84;31445240;28;20502;-74
2023/10/25 01:43:25;;;;;;;42.63;17.37;;;;;;;15.66;89.20;100154.41;31435030;28;20053;-74
2023/10/25 01:58:28;;;;;;;36.80;14.07;;;;;;;15.75;88.38;100150.97;31443832;28;20051;-74
2023/10/25 02:13:30;;;;;;;42.90;17.33;;;;;;;15.71;86.63;100160.53;31435301;28;20157;-73
2023/10/25 02:28:32;;;;;;;41.67;19.20;;;;;;;15.47;90.71;100152.03;31435058;28;20090;-75
2023/10/25 02:43:34;;;;;;;33.13;15.40;;;;;;;15.25;96.00;100136.47;31428608;28;20087;-74
2023/10/25 02:58:36;;;;;;;32.60;17.33;;;;;;;15.21;96.86;100135.84;31429703;28;20042;-74
2023/10/25 03:13:38;;;;;;;40.00;17.63;;;;;;;14.84;95.02;100128.66;31425201;28;20060;-74
2023/10/25 03:28:41;;;;;;;30.57;14.70;;;;;;;14.66;94.29;100108.19;31422652;28;20040;-75
2023/10/25 03:43:43;;;;;;;30.43;13.93;;;;;;;14.94;91.85;100111.09;31422201;28;20068;-73
2023/10/25 03:58:45;;;;;;;30.13;14.57;;;;;;;15.08;90.10;100099.63;31427168;28;20517;-74
2023/10/25 04:13:47;;;;;;;25.27;12.23;;;;;;;15.25;89.63;100108.34;31419386;28;20395;-74
2023/10/25 04:28:49;;;;;;;31.20;14.57;;;;;;;15.24;89.67;100129.47;31421865;28;20147;-73
2023/10/25 04:43:51;;;;;;;29.40;13.07;;;;;;;14.97;90.52;100143.00;31423340;28;20064;-73
2023/10/25 04:58:53;;;;;;;24.43;12.57;;;;;;;14.89;92.89;100137.03;31441644;28;20473;-72
2023/10/25 05:13:55;;;;;;;21.97;12.20;;;;;;;14.68;93.89;100154.19;31435507;28;20365;-75
2023/10/25 05:28:58;;;;;;;17.93;9.07;;;;;;;14.62;94.18;100151.28;31441899;28;20052;-74
2023/10/25 05:44:16;;;;;;;21.50;11.20;;;;;;;14.47;96.10;100166.63;31442085;28;20080;-74
2023/10/25 05:59:18;;;;;;;26.83;10.53;;;;;;;14.49;100.00;100160.72;31453106;28;20596;-75
2023/10/25 06:14:20;;;;;;;22.57;9.47;;;;;;;14.70;100.00;100148.28;31437787;28;20131;-76
2023/10/25 06:29:23;;;;;;;16.63;10.23;;;;;;;14.68;100.00;100129.59;31493105;28;20914;-74
2023/10/25 06:44:25;;;;;;;18.10;10.57;;;;;;;14.58;100.00;100106.94;31487639;28;20538;-74
2023/10/25 06:59:28;;;;;;;18.33;9.70;;;;;;;14.71;100.00;100081.50;31488066;28;20140;-75
2023/10/25 07:14:30;;;;;;;16.23;8.47;;;;;;;14.65;100.00;100062.19;31516191;28;20067;-75
2023/10/25 07:29:32;;;;;;;18.67;9.97;;;;;;;15.02;100.00;100046.75;31472743;28;20053;-75
2023/10/25 07:44:35;;;;;;;16.43;10.60;;;;;;;14.96;100.00;100016.50;31493276;28;20052;-76
2023/10/25 07:59:37;;;;;;;28.57;12.10;;;;;;;15.48;100.00;99983.97;31503576;28;20425;-76
2023/10/25 08:14:40;;;;;;;21.53;10.93;;;;;;;15.74;100.00;99957.09;31486654;28;20044;-75
2023/10/25 08:29:42;;;;;;;22.17;11.80;;;;;;;15.71;100.00;99953.31;31479685;28;20452;-76
2023/10/25 08:44:46;;;;;;;20.47;10.83;;;;;;;16.37;100.00;99893.22;31487898;28;20057;-75
2023/10/25 08:59:51;;;;;;;19.10;10.50;;;;;;;16.82;100.00;99878.56;31384676;28;20179;-83
2023/10/25 09:14:54;;;;;;;19.70;9.90;;;;;;;17.05;100.00;99883.28;31368759;28;20052;-77
2023/10/25 09:30:15;;;;;;;15.63;8.73;;;;;;;17.46;100.00;99852.66;31344536;28;20084;-78
2023/10/25 09:45:30;;;;;;;15.03;8.60;;;;;;;17.30;100.00;99813.47;31366248;28;20060;-75
2023/10/25 10:00:32;;;;;;;15.37;7.83;;;;;;;17.14;100.00;99797.47;31414642;28;20060;-85
2023/10/25 10:16:09;;;;;;;15.03;7.70;;;;;;;17.14;100.00;99759.06;31399459;28;20068;-78
2023/10/25 10:31:14;;;;;;;19.20;10.40;;;;;;;17.13;100.00;99737.59;31367773;28;20410;-78
2023/10/25 10:46:17;;;;;;;17.57;9.10;;;;;;;17.11;100.00;99713.38;31381373;28;20048;-77
2023/10/25 11:01:20;;;;;;;11.43;6.60;;;;;;;16.98;100.00;99666.28;31396950;28;20273;-79
2023/10/25 11:16:22;;;;;;;12.77;7.17;;;;;;;16.79;100.00;99641.03;31387585;28;20041;-79
2023/10/25 11:31:24;;;;;;;13.93;9.00;;;;;;;16.82;100.00;99633.84;31370194;28;20041;-80
2023/10/25 11:46:41;;;;;;;14.20;8.20;;;;;;;16.95;100.00;99621.38;31365850;28;20164;-81
2023/10/25 12:01:43;;;;;;;19.13;9.17;;;;;;;16.74;100.00;99588.88;31378629;28;20104;-80
2023/10/25 12:16:45;;;;;;;15.50;9.00;;;;;;;16.63;100.00;99538.13;31388355;28;20103;-85
2023/10/25 12:31:47;;;;;;;14.30;6.53;;;;;;;16.45;100.00;99516.38;31403759;28;20048;-80
2023/10/25 12:46:49;;;;;;;8.60;5.60;;;;;;;16.38;100.00;99492.06;31386710;28;20157;-86
2023/10/25 13:01:51;;;;;;;9.30;4.90;;;;;;;16.38;100.00;99475.63;31360237;28;20076;-86
2023/10/25 13:16:57;;;;;;;;;;;;;;;16.56;100.00;99489.13;31377269;28;20858;-87
2023/10/25 13:32:17;;;;;;;7.20;4.87;;;;;;;16.09;100.00;99429.09;31369866;28;20035;-80
2023/10/25 13:47:19;;;;;;;11.27;4.73;;;;;;;15.79;100.00;99374.34;31411469;28;20057;-89
2023/10/25 14:02:21;;;;;;;7.97;5.03;;;;;;;15.98;100.00;99337.34;31411766;28;20053;-86
2023/10/25 14:17:24;;;;;;;6.20;4.43;;;;;;;16.07;100.00;99319.28;31428137;28;20049;-85
2023/10/25 14:32:26;;;;;;;8.40;4.93;;;;;;;16.16;100.00;99324.66;31403320;28;20497;-82
2023/10/25 14:47:28;;;;;;;5.97;4.10;;;;;;;15.99;100.00;99327.91;31421937;28;20052;-83
2023/10/25 15:02:30;;;;;;;6.33;4.27;;;;;;;15.98;100.00;99320.91;31424379;28;20045;-89
2023/10/25 15:17:32;;;;;;;6.93;3.87;;;;;;;15.98;100.00;99296.28;31428190;28;20181;-89
2023/10/25 15:32:37;;;;;;;7.63;4.60;;;;;;;15.95;100.00;99250.69;31433637;28;20478;-89
2023/10/25 15:47:40;;;;;;;;;;;;;;;16.01;100.00;99226.16;31425607;28;20054;-89
2023/10/25 16:02:43;;;;;;;9.27;4.73;;;;;;;16.06;100.00;99213.78;31413818;28;19920;-83
2023/10/25 16:17:47;;;;;;;6.53;3.50;;;;;;;16.09;100.00;99193.63;31364952;28;20041;-77
2023/10/25 16:32:49;;;;;;;6.07;3.57;;;;;;;16.03;100.00;99153.28;31397404;28;20045;-77
2023/10/25 16:47:51;;;;;;;6.20;3.87;;;;;;;15.94;100.00;99188.97;31375929;28;20147;-78
2023/10/25 17:02:54;;;;;;;7.03;4.40;;;;;;;15.97;100.00;99155.19;31388379;28;20053;-79
2023/10/25 17:17:57;;;;;;;6.03;4.27;;;;;;;16.11;100.00;99114.53;31399344;28;20057;-80
2023/10/25 17:33:04;;;;;;;;;;;;;;;16.37;100.00;99183.81;31373477;28;20501;-78
2023/10/25 17:48:06;;;;;;;7.13;4.23;;;;;;;16.44;100.00;99100.47;31371747;28;19920;-81
2023/10/25 18:03:08;;;;;;;7.57;5.07;;;;;;;16.44;100.00;99054.66;31402090;28;20052;-78
2023/10/25 18:18:11;;;;;;;9.13;5.50;;;;;;;16.55;100.00;99082.16;31409792;28;20130;-79
2023/10/25 18:33:13;;;;;;;9.77;6.20;;;;;;;16.72;100.00;99073.38;31376536;28;20060;-78
2023/10/25 18:48:18;;;;;;;14.13;6.83;;;;;;;16.67;100.00;99080.31;31393717;28;20053;-81
2023/10/25 19:03:22;;;;;;;14.30;7.40;;;;;;;16.88;100.00;99021.44;31373915;28;20045;-78
2023/10/25 19:18:25;;;;;;;17.83;9.60;;;;;;;16.96;100.00;99021.75;31378050;28;20103;-81
2023/10/25 19:33:27;;;;;;;17.97;9.33;;;;;;;17.10;100.00;99026.31;31386742;28;20079;-78
2023/10/25 19:48:30;;;;;;;15.77;9.00;;;;;;;17.13;100.00;98997.94;31395677;28;20048;-77
2023/10/25 20:03:38;;;;;;;20.37;9.57;;;;;;;16.84;100.00;98963.34;31377780;28;20051;-78
2023/10/25 20:18:41;;;;;;;16.73;10.03;;;;;;;16.73;100.00;98926.91;31383855;28;20493;-76
2023/10/25 20:33:43;;;;;;;23.17;10.37;;;;;;;16.93;100.00;98882.94;31399216;28;20464;-76
2023/10/25 20:48:45;;;;;;;24.10;10.57;;;;;;;17.12;100.00;98847.63;31376545;28;20056;-79
2023/10/25 21:03:47;;;;;;;15.63;9.27;;;;;;;17.27;100.00;98837.19;31368903;28;20555;-78
2023/10/25 21:18:53;;;;;;;19.10;11.03;;;;;;;17.15;100.00;98819.97;31378030;28;20037;-80
2023/10/25 21:33:55;;;;;;;23.83;10.67;;;;;;;17.18;100.00;98775.09;31399860;28;20060;-80
2023/10/25 21:48:57;;;;;;;20.50;12.23;;;;;;;17.30;100.00;98771.13;31409551;28;20059;-80
2023/10/25 22:04:00;;;;;;;28.57;12.77;;;;;;;17.48;100.00;98764.41;31396444;28;20049;-80
2023/10/25 22:19:02;;;;;;;31.23;14.73;;;;;;;17.74;100.00;98747.75;31401847;28;20051;-80
2023/10/25 22:34:05;;;;;;;26.73;14.17;;;;;;;17.97;100.00;98749.22;31400274;28;20068;-80
2023/10/25 22:49:07;;;;;;;25.17;14.47;;;;;;;18.13;100.00;98727.75;31418374;28;20490;-80
2023/10/25 23:04:09;;;;;;;34.30;16.33;;;;;;;18.19;100.00;98712.75;31392786;28;20063;-78
2023/10/25 23:19:11;;;;;;;35.20;16.80;;;;;;;18.35;100.00;98695.47;31393379;28;20491;-79
2023/10/25 23:34:14;;;;;;;32.33;15.20;;;;;;;18.42;100.00;98703.19;31388246;28;20077;-78
2023/10/25 23:49:16;;;;;;;22.43;14.10;;;;;;;18.52;100.00;98689.91;31389169;28;20053;-78
